Erdenheim, Pennsylvania
Current Conditions -  °F | °C
As of 9:35 AM on Sunday 23 Nov 2014 (Local Time) from KLOM Reporting Station
Clear Clear  
Wind Chill: 46°   Ceiling: Unl
Heat Index: 46°   Visibility: 10mi
Dew Point: 27°   Wind: 3mph
Humidity: 46%   Direction: 240°WSW
Pressure: 30.21"   Gusts: NA
Location:  40.1012°N, 75.1722°W
Report Text: KLOM 231435Z AUTO 24003KT 10SM CLR 08/M03 A3021 RMK AO1
Loading
Personal Weather Stations






























Interactive Weather Map New forecast layout! Learn more

10-Day Weather Forecast

Advertisements
Track Severe Weather on mobile